createdAt,value
2023-05-25T00:01:00.491Z,36.80
2023-05-25T00:03:32.618Z,37.80
2023-05-25T00:06:03.988Z,39.40
2023-05-25T00:08:31.798Z,37.90
2023-05-25T00:10:59.572Z,37.80
2023-05-25T00:13:27.581Z,39.00
2023-05-25T00:15:55.696Z,37.80
2023-05-25T00:18:25.117Z,43.40
2023-05-25T00:20:56.155Z,43.80
2023-05-25T00:23:23.943Z,44.20
2023-05-25T00:25:51.878Z,44.20
2023-05-25T00:28:19.799Z,40.00
2023-05-25T00:30:47.701Z,41.60
2023-05-25T00:33:16.418Z,37.10
2023-05-25T00:35:44.974Z,37.60
2023-05-25T00:38:14.797Z,38.10
2023-05-25T00:40:43.148Z,37.80
2023-05-25T00:43:12.240Z,40.50
2023-05-25T00:45:40.328Z,36.70
2023-05-25T00:48:09.787Z,40.10
2023-05-25T00:50:40.822Z,39.90
2023-05-25T00:53:10.670Z,38.00
2023-05-25T00:55:51.088Z,35.90
2023-05-25T00:58:22.328Z,39.50
2023-05-25T01:00:51.281Z,38.90
2023-05-25T01:03:23.220Z,41.00
2023-05-25T01:05:54.406Z,36.60
2023-05-25T01:08:24.596Z,37.40
2023-05-25T01:10:54.066Z,38.40
2023-05-25T01:13:22.049Z,39.50
2023-05-25T01:15:51.337Z,38.20
2023-05-25T01:18:19.209Z,38.20
2023-05-25T01:21:20.514Z,39.50
2023-05-25T01:24:02.426Z,39.40
2023-05-25T01:26:38.153Z,39.50
2023-05-25T01:29:07.089Z,36.60
2023-05-25T01:31:36.565Z,37.80
2023-05-25T01:34:05.487Z,38.80
2023-05-25T01:36:34.289Z,37.70
2023-05-25T01:39:02.238Z,36.70
2023-05-25T01:41:30.124Z,35.40
2023-05-25T01:43:58.127Z,34.60
2023-05-25T01:46:39.800Z,36.50
2023-05-25T01:49:21.967Z,32.80
2023-05-25T01:52:01.028Z,34.40
2023-05-25T01:54:36.898Z,34.40
2023-05-25T01:57:12.822Z,34.90
2023-05-25T01:59:43.677Z,33.90
2023-05-25T02:02:14.660Z,34.50
2023-05-25T02:04:44.129Z,35.70
2023-05-25T02:07:12.168Z,34.20
2023-05-25T02:09:40.146Z,33.80
2023-05-25T02:12:08.273Z,32.70
2023-05-25T02:14:36.331Z,32.70
2023-05-25T02:17:04.709Z,33.60
2023-05-25T02:19:32.694Z,32.60
2023-05-25T02:22:00.600Z,33.20
2023-05-25T02:24:28.507Z,29.40
2023-05-25T02:26:56.429Z,33.30
2023-05-25T02:29:24.384Z,33.80
2023-05-25T02:31:52.191Z,31.20
2023-05-25T02:34:20.149Z,32.60
2023-05-25T02:36:48.179Z,30.90
2023-05-25T02:39:16.089Z,32.00
2023-05-25T02:41:43.966Z,30.50
2023-05-25T02:44:12.801Z,28.60
2023-05-25T02:46:40.701Z,28.40
2023-05-25T02:49:08.525Z,29.60
2023-05-25T02:51:37.135Z,28.00
2023-05-25T02:54:05.081Z,30.70
2023-05-25T02:56:32.943Z,30.00
2023-05-25T02:59:00.790Z,30.40
2023-05-25T03:01:31.136Z,28.40
2023-05-25T03:03:59.614Z,29.60
2023-05-25T03:06:27.679Z,30.00
2023-05-25T03:08:56.304Z,30.20
2023-05-25T03:11:24.352Z,31.70
2023-05-25T03:13:52.440Z,30.30
2023-05-25T03:16:24.056Z,39.50
2023-05-25T03:18:52.093Z,37.30
2023-05-25T03:21:20.105Z,32.30
2023-05-25T03:23:48.694Z,32.80
2023-05-25T03:26:17.888Z,31.20
2023-05-25T03:28:45.998Z,30.40
2023-05-25T03:31:15.164Z,31.30
2023-05-25T03:33:43.067Z,31.10
2023-05-25T03:36:12.392Z,31.50
2023-05-25T03:38:40.452Z,31.10
2023-05-25T03:41:08.235Z,32.30
2023-05-25T03:43:36.091Z,29.90
2023-05-25T03:46:04.036Z,32.90
2023-05-25T03:48:31.951Z,30.80
2023-05-25T03:50:59.784Z,30.40
2023-05-25T03:53:27.683Z,31.00
2023-05-25T03:55:56.156Z,32.10
2023-05-25T03:58:24.024Z,33.90
2023-05-25T04:00:52.737Z,31.00
2023-05-25T04:03:21.295Z,33.40
2023-05-25T04:05:50.148Z,30.30
2023-05-25T04:08:18.202Z,30.30
2023-05-25T04:10:46.761Z,30.50
2023-05-25T04:13:14.848Z,30.40
2023-05-25T04:15:42.902Z,29.30
2023-05-25T04:18:11.010Z,29.30
2023-05-25T04:20:38.994Z,31.90
2023-05-25T04:23:06.991Z,31.30
2023-05-25T04:25:35.087Z,28.10
2023-05-25T04:28:02.969Z,27.70
2023-05-25T04:30:31.556Z,29.50
2023-05-25T04:33:02.836Z,31.00
2023-05-25T04:35:31.840Z,27.40
2023-05-25T04:38:02.784Z,33.20
2023-05-25T04:40:33.331Z,26.70
2023-05-25T04:43:02.124Z,30.70
2023-05-25T04:45:33.397Z,30.20
2023-05-25T04:48:01.802Z,30.20
2023-05-25T04:50:29.955Z,29.20
2023-05-25T04:52:57.883Z,29.10
2023-05-25T04:55:25.802Z,29.00
2023-05-25T04:57:55.093Z,30.00
2023-05-25T05:00:23.066Z,30.60
2023-05-25T05:02:51.632Z,28.40
2023-05-25T05:05:19.592Z,30.10
2023-05-25T05:07:47.591Z,29.50
2023-05-25T05:10:15.691Z,28.50
2023-05-25T05:12:43.775Z,29.60
2023-05-25T05:15:11.945Z,26.80
2023-05-25T05:17:39.867Z,28.90
2023-05-25T05:20:09.109Z,57.40
2023-05-25T05:22:37.681Z,27.80
2023-05-25T05:25:07.389Z,27.10
2023-05-25T05:27:35.206Z,25.90
2023-05-25T05:30:03.761Z,29.60
2023-05-25T05:32:31.680Z,29.00
2023-05-25T05:35:00.701Z,28.90
2023-05-25T05:37:28.623Z,27.40
2023-05-25T05:39:56.575Z,30.00
2023-05-25T05:42:24.560Z,28.90
2023-05-25T05:44:52.352Z,30.80
2023-05-25T05:47:20.473Z,30.70
2023-05-25T05:49:48.452Z,28.20
2023-05-25T05:52:16.377Z,28.70
2023-05-25T05:54:44.370Z,29.20
2023-05-25T05:57:12.114Z,28.40
2023-05-25T05:59:40.068Z,25.90
2023-05-25T06:02:08.275Z,31.20
2023-05-25T06:04:38.368Z,30.50
2023-05-25T06:07:06.470Z,29.30
2023-05-25T06:09:34.363Z,29.60
2023-05-25T06:12:03.440Z,26.80
2023-05-25T06:14:31.364Z,28.90
2023-05-25T06:16:59.382Z,26.90
2023-05-25T06:19:27.293Z,30.50
2023-05-25T06:21:55.214Z,31.70
2023-05-25T06:24:23.815Z,31.30
2023-05-25T06:26:51.774Z,31.30
2023-05-25T06:29:19.649Z,30.40
2023-05-25T06:31:47.663Z,32.20
2023-05-25T06:34:15.543Z,29.90
2023-05-25T06:36:43.522Z,31.20
2023-05-25T06:39:11.591Z,32.00
2023-05-25T06:41:40.627Z,32.10
2023-05-25T06:44:08.846Z,29.80
2023-05-25T06:46:37.414Z,30.20
2023-05-25T06:49:05.979Z,30.50
2023-05-25T06:51:34.050Z,27.20
2023-05-25T06:54:02.222Z,29.10
2023-05-25T06:56:30.183Z,28.40
2023-05-25T06:58:58.023Z,28.60
2023-05-25T07:01:26.147Z,27.70
2023-05-25T07:03:54.128Z,28.50
2023-05-25T07:06:22.230Z,27.30
2023-05-25T07:08:50.199Z,29.30
2023-05-25T07:11:20.802Z,31.90
2023-05-25T07:13:48.852Z,30.30
2023-05-25T07:16:16.715Z,30.00
2023-05-25T07:18:44.650Z,29.40
2023-05-25T07:21:12.499Z,28.90
2023-05-25T07:23:43.306Z,31.10
2023-05-25T07:26:11.352Z,26.40
2023-05-25T07:28:39.169Z,26.30
2023-05-25T07:31:07.205Z,23.90
2023-05-25T07:33:35.122Z,28.10
2023-05-25T07:36:03.114Z,24.30
2023-05-25T07:38:31.167Z,21.60
2023-05-25T07:40:59.087Z,22.00
2023-05-25T07:43:27.454Z,21.10
2023-05-25T07:45:55.423Z,20.10
2023-05-25T07:48:23.395Z,19.20
2023-05-25T07:50:51.705Z,18.20
2023-05-25T07:53:19.833Z,19.00
2023-05-25T07:55:47.847Z,18.80
2023-05-25T07:58:15.781Z,17.70
2023-05-25T08:00:44.445Z,15.70
2023-05-25T08:03:12.482Z,16.10
2023-05-25T08:05:40.730Z,15.20
2023-05-25T08:08:10.035Z,15.40
2023-05-25T08:10:37.874Z,14.20
2023-05-25T08:13:05.919Z,13.10
2023-05-25T08:15:33.799Z,12.20
2023-05-25T08:18:04.469Z,13.40
2023-05-25T08:20:32.514Z,15.20
2023-05-25T08:23:02.000Z,15.00
2023-05-25T08:25:29.860Z,14.80
2023-05-25T08:27:57.755Z,14.50
2023-05-25T08:30:25.638Z,14.20
2023-05-25T08:32:53.544Z,14.50
2023-05-25T08:35:21.990Z,13.30
2023-05-25T08:37:49.851Z,13.50
2023-05-25T08:40:22.665Z,13.90
2023-05-25T08:42:50.527Z,13.50
2023-05-25T08:45:33.620Z,13.10
2023-05-25T08:48:10.840Z,12.70
2023-05-25T08:50:39.773Z,11.60
2023-05-25T08:53:11.828Z,14.00
2023-05-25T08:55:43.551Z,14.00
2023-05-25T08:58:24.025Z,13.70
2023-05-25T09:00:57.682Z,11.60
2023-05-25T09:03:26.400Z,10.50
2023-05-25T09:05:56.356Z,10.60
2023-05-25T09:08:25.226Z,10.50
2023-05-25T09:10:55.716Z,10.20
2023-05-25T09:13:23.882Z,11.10
2023-05-25T09:15:53.022Z,9.70
2023-05-25T09:18:21.326Z,10.20
2023-05-25T09:20:50.061Z,9.40
2023-05-25T09:23:18.947Z,9.30
2023-05-25T09:25:48.210Z,11.30
2023-05-25T09:28:26.721Z,10.80
2023-05-25T09:30:56.385Z,9.80
2023-05-25T09:33:24.421Z,10.00
2023-05-25T09:35:52.477Z,10.40
2023-05-25T09:38:21.693Z,10.50
2023-05-25T09:40:49.852Z,10.60
2023-05-25T09:43:32.365Z,9.70
2023-05-25T09:46:06.091Z,10.50
2023-05-25T09:48:34.718Z,10.70
2023-05-25T09:51:02.716Z,9.90
2023-05-25T09:53:32.071Z,9.90
2023-05-25T09:56:01.937Z,8.80
2023-05-25T09:58:31.925Z,9.70
2023-05-25T10:01:00.927Z,10.20
2023-05-25T10:03:29.276Z,8.50
2023-05-25T10:05:57.732Z,8.60
2023-05-25T10:08:28.901Z,8.90
2023-05-25T10:10:57.313Z,8.80
2023-05-25T10:13:28.781Z,9.00
2023-05-25T10:15:58.024Z,7.60
2023-05-25T10:18:30.407Z,7.50
2023-05-25T10:21:03.602Z,7.50
2023-05-25T10:23:38.127Z,6.70
2023-05-25T10:26:08.282Z,7.20
2023-05-25T10:28:39.462Z,7.20
2023-05-25T10:31:09.755Z,7.40
2023-05-25T10:33:37.809Z,7.40
2023-05-25T10:36:10.831Z,6.70
2023-05-25T10:38:44.726Z,6.50
2023-05-25T10:41:16.063Z,7.10
2023-05-25T10:43:44.296Z,6.20
2023-05-25T10:46:15.032Z,6.70
2023-05-25T10:48:51.781Z,6.20
2023-05-25T10:51:21.020Z,5.90
2023-05-25T10:54:01.045Z,6.00
2023-05-25T10:56:28.952Z,6.00
2023-05-25T10:58:57.134Z,5.50
2023-05-25T11:01:25.654Z,5.50
2023-05-25T11:04:11.639Z,5.60
2023-05-25T11:06:45.802Z,5.50
2023-05-25T11:09:27.840Z,4.80
2023-05-25T11:12:03.527Z,5.30
2023-05-25T11:14:32.511Z,5.10
2023-05-25T11:17:11.783Z,5.60
2023-05-25T11:19:52.118Z,5.20
2023-05-25T11:22:31.109Z,5.20
2023-05-25T11:25:00.778Z,5.80
2023-05-25T11:27:30.697Z,5.70
2023-05-25T11:29:59.893Z,6.00
2023-05-25T11:32:29.258Z,5.00
2023-05-25T11:34:58.542Z,5.20
2023-05-25T11:37:31.445Z,5.30
2023-05-25T11:39:59.829Z,5.80
2023-05-25T11:42:27.887Z,5.60
2023-05-25T11:44:56.161Z,5.70
2023-05-25T11:47:25.700Z,5.60
2023-05-25T11:49:55.679Z,5.20
2023-05-25T11:52:23.666Z,5.70
2023-05-25T11:54:53.374Z,5.70
2023-05-25T11:57:24.958Z,5.40
2023-05-25T11:59:56.255Z,5.70
2023-05-25T12:02:24.607Z,5.50
2023-05-25T12:05:02.367Z,5.70
2023-05-25T12:07:31.970Z,5.70
2023-05-25T12:10:11.539Z,6.00
2023-05-25T12:12:50.752Z,5.10
2023-05-25T12:15:22.592Z,5.50
2023-05-25T12:17:51.671Z,6.20
2023-05-25T12:20:20.430Z,6.10
2023-05-25T12:22:48.904Z,5.70
2023-05-25T12:25:21.968Z,5.60
2023-05-25T12:28:09.834Z,6.20
2023-05-25T12:30:38.351Z,6.10
2023-05-25T12:33:06.371Z,6.30
2023-05-25T12:35:50.542Z,5.80
2023-05-25T12:38:21.711Z,6.10
2023-05-25T12:41:07.150Z,5.90
2023-05-25T12:43:39.855Z,5.90
2023-05-25T12:46:07.898Z,5.90
2023-05-25T12:48:36.218Z,5.90
2023-05-25T12:51:04.359Z,6.30
2023-05-25T12:53:33.723Z,5.70
2023-05-25T12:56:03.513Z,5.90
2023-05-25T12:58:31.531Z,6.00
2023-05-25T13:00:59.772Z,5.70
2023-05-25T13:03:27.842Z,6.30
2023-05-25T13:06:01.000Z,6.00
2023-05-25T13:10:56.980Z,6.50
2023-05-25T13:13:24.901Z,5.70
2023-05-25T13:15:53.348Z,5.90
2023-05-25T13:18:21.328Z,7.10
2023-05-25T13:20:51.831Z,5.90
2023-05-25T13:23:21.329Z,5.90
2023-05-25T13:25:49.193Z,5.80
2023-05-25T13:28:17.170Z,6.50
2023-05-25T13:30:45.270Z,6.10
2023-05-25T13:33:13.458Z,6.50
2023-05-25T13:35:58.588Z,6.40
2023-05-25T13:38:27.591Z,6.80
2023-05-25T13:40:55.537Z,6.80
2023-05-25T13:43:23.552Z,6.50
2023-05-25T13:45:51.565Z,6.50
2023-05-25T13:48:19.596Z,6.40
2023-05-25T13:50:47.555Z,6.20
2023-05-25T13:53:15.527Z,6.80
2023-05-25T13:55:43.675Z,6.90
2023-05-25T13:58:11.543Z,6.60
2023-05-25T14:00:39.412Z,6.80
2023-05-25T14:03:07.542Z,6.70
2023-05-25T14:05:35.559Z,6.70
2023-05-25T14:08:05.002Z,7.50
2023-05-25T14:10:32.959Z,7.00
2023-05-25T14:13:00.936Z,7.20
2023-05-25T14:15:28.873Z,6.90
2023-05-25T14:17:57.514Z,7.20
2023-05-25T14:20:26.411Z,6.70
2023-05-25T14:22:54.926Z,6.90
2023-05-25T14:25:23.027Z,6.80
2023-05-25T14:27:50.992Z,6.60
2023-05-25T14:30:18.889Z,6.80
2023-05-25T14:32:46.872Z,7.00
2023-05-25T14:35:14.866Z,7.10
2023-05-25T14:37:42.725Z,6.60
2023-05-25T14:40:11.430Z,6.50
2023-05-25T14:42:39.431Z,6.10
2023-05-25T14:45:10.680Z,7.30
2023-05-25T14:47:39.574Z,7.10
2023-05-25T14:50:08.064Z,6.40
2023-05-25T14:52:36.603Z,6.60
2023-05-25T14:55:05.475Z,6.60
2023-05-25T14:57:33.296Z,6.90
2023-05-25T15:00:01.534Z,6.80
2023-05-25T15:02:29.779Z,6.60
2023-05-25T15:04:58.624Z,6.50
2023-05-25T15:07:26.624Z,7.40
2023-05-25T15:09:54.656Z,6.50
2023-05-25T15:12:22.503Z,7.20
2023-05-25T15:14:50.421Z,6.90
2023-05-25T15:17:18.235Z,7.70
2023-05-25T15:19:46.137Z,7.20
2023-05-25T15:22:13.996Z,7.20
2023-05-25T15:24:42.786Z,7.00
2023-05-25T15:27:10.774Z,6.50
2023-05-25T15:29:38.896Z,7.10
2023-05-25T15:32:09.529Z,6.80
2023-05-25T15:34:37.615Z,7.20
2023-05-25T15:37:05.471Z,7.70
2023-05-25T15:39:33.357Z,7.10
2023-05-25T15:42:01.785Z,6.80
2023-05-25T15:44:30.350Z,7.60
2023-05-25T15:46:58.363Z,7.20
2023-05-25T15:49:26.294Z,7.30
2023-05-25T15:51:54.860Z,8.60
2023-05-25T15:54:23.037Z,8.70
2023-05-25T15:56:53.306Z,9.00
2023-05-25T15:59:21.257Z,8.90
2023-05-25T16:01:49.119Z,9.10
2023-05-25T16:04:17.092Z,8.90
2023-05-25T16:06:45.240Z,7.90
2023-05-25T16:09:13.199Z,8.20
2023-05-25T16:11:41.089Z,8.30
2023-05-25T16:14:08.982Z,8.40
2023-05-25T16:16:37.123Z,8.00
2023-05-25T16:19:05.091Z,8.20
2023-05-25T16:21:36.931Z,8.10
2023-05-25T16:24:07.845Z,9.40
2023-05-25T16:26:35.763Z,8.00
2023-05-25T16:29:03.774Z,8.30
2023-05-25T16:31:31.798Z,8.10
2023-05-25T16:33:59.794Z,7.90
2023-05-25T16:36:27.816Z,7.60
2023-05-25T16:38:56.056Z,8.40
2023-05-25T16:41:23.912Z,8.10
2023-05-25T16:43:51.976Z,7.50
2023-05-25T16:46:21.376Z,7.90
2023-05-25T16:48:49.586Z,8.50
2023-05-25T16:51:17.782Z,7.90
2023-05-25T16:53:48.906Z,8.50
2023-05-25T16:56:16.704Z,8.60
2023-05-25T16:58:44.600Z,9.10
2023-05-25T17:01:12.693Z,8.70
2023-05-25T17:03:40.753Z,8.20
2023-05-25T17:06:08.747Z,8.10
2023-05-25T17:08:36.665Z,8.90
2023-05-25T17:11:04.757Z,8.90
2023-05-25T17:13:32.687Z,7.80
2023-05-25T17:16:00.637Z,8.10
2023-05-25T17:18:29.359Z,8.30
2023-05-25T17:20:57.875Z,8.20
2023-05-25T17:23:25.909Z,8.60
2023-05-25T17:25:53.821Z,8.30
2023-05-25T17:28:21.760Z,7.80
2023-05-25T17:30:49.744Z,8.20
2023-05-25T17:33:17.800Z,8.10
2023-05-25T17:35:46.423Z,8.90
2023-05-25T17:38:14.504Z,8.30
2023-05-25T17:40:42.405Z,8.10
2023-05-25T17:43:10.544Z,7.90
2023-05-25T17:45:38.840Z,8.50
2023-05-25T17:48:06.939Z,8.40
2023-05-25T17:50:34.914Z,8.10
2023-05-25T17:53:02.884Z,9.80
2023-05-25T17:55:30.764Z,9.00
2023-05-25T17:57:58.591Z,9.30
2023-05-25T18:00:26.426Z,8.70
2023-05-25T18:02:54.462Z,9.00
2023-05-25T18:05:22.797Z,8.70
2023-05-25T18:07:50.642Z,9.50
2023-05-25T18:10:18.598Z,9.20
2023-05-25T18:12:49.301Z,9.80
2023-05-25T18:15:17.238Z,9.50
2023-05-25T18:17:45.173Z,9.30
2023-05-25T18:20:13.243Z,8.50
2023-05-25T18:22:41.439Z,8.60
2023-05-25T18:25:09.673Z,8.90
2023-05-25T18:27:37.492Z,9.50
2023-05-25T18:30:06.254Z,9.60
2023-05-25T18:32:34.188Z,9.30
2023-05-25T18:35:02.219Z,9.70
2023-05-25T18:37:34.361Z,9.10
2023-05-25T18:40:03.296Z,9.80
2023-05-25T18:42:31.361Z,9.20
2023-05-25T18:44:59.186Z,9.30
2023-05-25T18:47:27.554Z,9.50
2023-05-25T18:49:56.363Z,9.50
2023-05-25T18:52:24.399Z,9.20
2023-05-25T18:54:52.287Z,9.60
2023-05-25T18:57:20.183Z,9.30
2023-05-25T18:59:48.023Z,9.80
2023-05-25T19:02:16.057Z,9.50
2023-05-25T19:04:44.028Z,9.50
2023-05-25T19:07:12.185Z,9.30
2023-05-25T19:09:40.107Z,9.00
2023-05-25T19:12:08.510Z,8.90
2023-05-25T19:14:36.685Z,8.80
2023-05-25T19:17:04.795Z,8.80
2023-05-25T19:19:32.759Z,8.60
2023-05-25T19:22:00.703Z,9.40
2023-05-25T19:24:28.902Z,9.40
2023-05-25T19:26:56.703Z,9.70
2023-05-25T19:29:24.536Z,10.30
2023-05-25T19:31:52.504Z,9.70
2023-05-25T19:34:20.724Z,9.00
2023-05-25T19:36:56.346Z,9.50
2023-05-25T19:39:28.199Z,10.10
2023-05-25T19:41:56.491Z,9.50
2023-05-25T19:44:25.392Z,9.50
2023-05-25T19:46:53.324Z,9.30
2023-05-25T19:49:21.648Z,8.80
2023-05-25T19:51:49.573Z,8.90
2023-05-25T19:54:17.490Z,8.80
2023-05-25T19:56:45.416Z,8.90
2023-05-25T19:59:13.250Z,9.30
2023-05-25T20:01:41.251Z,8.50
2023-05-25T20:04:09.519Z,8.30
2023-05-25T20:06:37.676Z,8.70
2023-05-25T20:09:06.160Z,9.00
2023-05-25T20:11:34.024Z,8.60
2023-05-25T20:14:02.016Z,8.90
2023-05-25T20:16:29.905Z,9.50
2023-05-25T20:18:57.849Z,10.00
2023-05-25T20:21:25.881Z,8.80
2023-05-25T20:23:53.766Z,8.30
2023-05-25T20:26:21.710Z,8.40
2023-05-25T20:28:49.511Z,9.40
2023-05-25T20:31:17.330Z,8.80
2023-05-25T20:33:45.206Z,9.30
2023-05-25T20:36:14.956Z,9.70
2023-05-25T20:38:45.803Z,8.80
2023-05-25T20:41:13.917Z,8.80
2023-05-25T20:43:42.044Z,8.50
2023-05-25T20:46:11.267Z,8.40
2023-05-25T20:48:39.748Z,8.80
2023-05-25T20:51:07.891Z,8.70
2023-05-25T20:53:36.279Z,8.00
2023-05-25T20:56:04.224Z,8.10
2023-05-25T20:58:32.055Z,8.10
2023-05-25T21:00:59.914Z,8.20
2023-05-25T21:03:27.804Z,8.20
2023-05-25T21:05:56.115Z,9.20
2023-05-25T21:08:24.319Z,8.10
2023-05-25T21:10:52.314Z,8.10
2023-05-25T21:13:20.173Z,8.80
2023-05-25T21:15:48.158Z,8.20
2023-05-25T21:18:16.545Z,8.20
2023-05-25T21:20:44.562Z,9.40
2023-05-25T21:23:12.577Z,8.90
2023-05-25T21:25:40.683Z,8.30
2023-05-25T21:28:10.427Z,8.70
2023-05-25T21:30:38.279Z,9.10
2023-05-25T21:33:06.231Z,7.90
2023-05-25T21:35:34.662Z,8.00
2023-05-25T21:38:02.520Z,7.70
2023-05-25T21:40:30.371Z,8.30
2023-05-25T21:42:58.485Z,7.60
2023-05-25T21:45:26.363Z,8.60
2023-05-25T21:47:54.483Z,8.10
2023-05-25T21:50:22.343Z,7.80
2023-05-25T21:52:50.308Z,7.90
2023-05-25T21:55:18.231Z,9.20
2023-05-25T21:57:46.076Z,8.90
2023-05-25T22:00:15.093Z,8.30
2023-05-25T22:02:43.023Z,8.90
2023-05-25T22:05:11.019Z,8.30
2023-05-25T22:07:38.829Z,8.90
2023-05-25T22:10:07.595Z,9.50
2023-05-25T22:12:35.645Z,8.40
2023-05-25T22:15:05.306Z,8.30
2023-05-25T22:17:33.446Z,9.20
2023-05-25T22:20:07.949Z,9.20
2023-05-25T22:22:37.576Z,9.30
2023-05-25T22:25:06.231Z,9.70
2023-05-25T22:27:34.146Z,9.00
2023-05-25T22:30:02.324Z,9.80
2023-05-25T22:32:30.453Z,9.60
2023-05-25T22:34:58.381Z,9.00
2023-05-25T22:37:26.430Z,8.80
2023-05-25T22:39:54.498Z,9.10
2023-05-25T22:42:22.467Z,9.30
2023-05-25T22:44:51.449Z,9.10
2023-05-25T22:47:19.420Z,9.30
2023-05-25T22:49:47.284Z,9.20
2023-05-25T22:52:15.494Z,9.40
2023-05-25T22:54:43.371Z,8.80
2023-05-25T22:57:11.238Z,10.00
2023-05-25T22:59:39.167Z,9.70
2023-05-25T23:02:07.751Z,10.80
2023-05-25T23:04:36.880Z,9.70
2023-05-25T23:07:05.120Z,9.20
2023-05-25T23:09:32.982Z,9.50
2023-05-25T23:12:01.854Z,9.40
2023-05-25T23:14:30.569Z,9.10
2023-05-25T23:16:58.368Z,9.90
2023-05-25T23:19:26.262Z,9.70
2023-05-25T23:21:54.530Z,9.60
2023-05-25T23:24:22.548Z,9.90
2023-05-25T23:26:50.384Z,9.90
2023-05-25T23:29:18.592Z,9.50
2023-05-25T23:31:47.676Z,9.70
2023-05-25T23:34:16.044Z,9.70
2023-05-25T23:36:44.017Z,9.60
2023-05-25T23:39:13.231Z,9.00
2023-05-25T23:41:41.199Z,10.00
2023-05-25T23:44:09.012Z,9.40
2023-05-25T23:46:36.857Z,9.70
2023-05-25T23:49:05.877Z,9.90
2023-05-25T23:51:33.924Z,10.00
2023-05-25T23:54:02.073Z,9.90
2023-05-25T23:56:31.847Z,9.60
2023-05-25T23:58:59.717Z,9.80
